FIN1161 EFHK-EPKK
Flight info
| Callsign | FIN1161 |
|---|---|
| Flight time | 1h 40m |
| Altitude | 36000 |
| Route | KOIVU Y123 LARTI DCT LUTAL DCT BERIL/N0442F350 DCT BOKSU/N0440F360 DCT TITUV M985 EVINA M66 KUKAM |
| Aircraft | B738/M-SDE2E3FGHIRWXY/LB1 |
Departure
| Time | 2026-04-25 17:10 |
|---|---|
| Airport | Helsinki Vantaa Airport (EFHK) |
Arrival
| Time | 2026-04-25 18:50 |
|---|---|
| Airport | Kraków John Paul II International Airport (EPKK) |
| Time | Latitude | Longitude | Altitude | Speed | Heading |
|---|---|---|---|---|---|
| 2026-04-25 16:38 | 60.31778 | 24.96267 | 189 ft | 0 kts | 137° |
| 2026-04-25 17:03 | 60.31782 | 24.96260 | 189 ft | 2 kts | 137° |
| 2026-04-25 17:03 | 60.31793 | 24.96240 | 189 ft | 2 kts | 137° |
| 2026-04-25 17:03 | 60.31804 | 24.96219 | 189 ft | 2 kts | 137° |
| 2026-04-25 17:03 | 60.31815 | 24.96198 | 189 ft | 2 kts | 137° |
| 2026-04-25 17:04 | 60.31824 | 24.96173 | 189 ft | 2 kts | 108° |
| 2026-04-25 17:04 | 60.31826 | 24.96144 | 189 ft | 2 kts | 86° |
| 2026-04-25 17:04 | 60.31823 | 24.96114 | 189 ft | 2 kts | 62° |
| 2026-04-25 17:04 | 60.31813 | 24.96091 | 189 ft | 2 kts | 41° |
| 2026-04-25 17:05 | 60.31805 | 24.96074 | 189 ft | 0 kts | 48° |
| 2026-04-25 17:05 | 60.31804 | 24.96072 | 189 ft | 0 kts | 48° |
| 2026-04-25 17:06 | 60.31805 | 24.96074 | 190 ft | 1 kts | 48° |
| 2026-04-25 17:06 | 60.31845 | 24.96129 | 190 ft | 9 kts | 8° |
| 2026-04-25 17:07 | 60.31900 | 24.96075 | 190 ft | 10 kts | 318° |
| 2026-04-25 17:07 | 60.31980 | 24.95929 | 190 ft | 18 kts | 317° |
| 2026-04-25 17:07 | 60.32079 | 24.95745 | 190 ft | 23 kts | 318° |
| 2026-04-25 17:07 | 60.32224 | 24.95478 | 190 ft | 28 kts | 317° |
| 2026-04-25 17:08 | 60.32375 | 24.95251 | 190 ft | 26 kts | 340° |
| 2026-04-25 17:08 | 60.32545 | 24.95139 | 189 ft | 25 kts | 342° |
| 2026-04-25 17:08 | 60.32716 | 24.95027 | 189 ft | 25 kts | 342° |
| 2026-04-25 17:08 | 60.32880 | 24.94915 | 189 ft | 24 kts | 332° |
| 2026-04-25 17:09 | 60.33011 | 24.94696 | 189 ft | 23 kts | 317° |
| 2026-04-25 17:09 | 60.33115 | 24.94476 | 189 ft | 18 kts | 287° |
| 2026-04-25 17:09 | 60.33057 | 24.94263 | 189 ft | 20 kts | 228° |
| 2026-04-25 17:09 | 60.32827 | 24.93758 | 189 ft | 82 kts | 228° |
| 2026-04-25 17:10 | 60.32296 | 24.92588 | 190 ft | 139 kts | 228° |
| 2026-04-25 17:10 | 60.31563 | 24.90971 | 339 ft | 169 kts | 232° |
| 2026-04-25 17:10 | 60.30772 | 24.89248 | 1009 ft | 169 kts | 235° |
| 2026-04-25 17:10 | 60.30119 | 24.87315 | 1578 ft | 170 kts | 256° |
| 2026-04-25 17:11 | 60.29882 | 24.84979 | 2015 ft | 173 kts | 276° |
| 2026-04-25 17:11 | 60.29977 | 24.82528 | 2408 ft | 182 kts | 288° |
| 2026-04-25 17:11 | 60.30277 | 24.79990 | 2831 ft | 194 kts | 290° |
| 2026-04-25 17:11 | 60.30413 | 24.77164 | 3239 ft | 218 kts | 268° |
| 2026-04-25 17:12 | 60.29892 | 24.74089 | 3663 ft | 242 kts | 251° |
| 2026-04-25 17:12 | 60.29142 | 24.70995 | 4174 ft | 254 kts | 250° |
| 2026-04-25 17:12 | 60.28388 | 24.67697 | 4669 ft | 266 kts | 252° |
| 2026-04-25 17:12 | 60.27652 | 24.64233 | 5386 ft | 269 kts | 252° |
| 2026-04-25 17:13 | 60.26730 | 24.60972 | 6072 ft | 279 kts | 232° |
| 2026-04-25 17:13 | 60.25709 | 24.59311 | 6606 ft | 284 kts | 211° |
| 2026-04-25 17:13 | 60.23142 | 24.58356 | 7610 ft | 290 kts | 178° |
| 2026-04-25 17:13 | 60.21136 | 24.58796 | 8323 ft | 292 kts | 174° |
| 2026-04-25 17:14 | 60.19137 | 24.59358 | 9032 ft | 294 kts | 174° |
| 2026-04-25 17:14 | 60.17110 | 24.59881 | 9736 ft | 296 kts | 175° |
| 2026-04-25 17:14 | 60.15046 | 24.60349 | 10099 ft | 310 kts | 176° |
| 2026-04-25 17:14 | 60.12847 | 24.60806 | 10496 ft | 323 kts | 176° |
| 2026-04-25 17:15 | 60.10577 | 24.61263 | 10856 ft | 337 kts | 176° |
| 2026-04-25 17:15 | 60.08194 | 24.61739 | 11268 ft | 349 kts | 176° |
| 2026-04-25 17:15 | 60.05776 | 24.62224 | 11886 ft | 355 kts | 176° |
| 2026-04-25 17:15 | 60.03318 | 24.62720 | 12641 ft | 357 kts | 176° |
| 2026-04-25 17:16 | 60.00879 | 24.63215 | 13394 ft | 359 kts | 176° |
| 2026-04-25 17:16 | 59.98409 | 24.63716 | 14164 ft | 360 kts | 176° |
| 2026-04-25 17:16 | 59.95916 | 24.64221 | 14862 ft | 364 kts | 176° |
| 2026-04-25 17:16 | 59.93379 | 24.64734 | 15593 ft | 367 kts | 177° |
| 2026-04-25 17:17 | 59.90847 | 24.65244 | 16329 ft | 369 kts | 177° |
| 2026-04-25 17:17 | 59.88286 | 24.65743 | 17041 ft | 371 kts | 178° |
| 2026-04-25 17:17 | 59.85705 | 24.66014 | 17740 ft | 371 kts | 183° |
| 2026-04-25 17:17 | 59.83147 | 24.65718 | 18437 ft | 371 kts | 189° |
| 2026-04-25 17:18 | 59.80598 | 24.64899 | 19039 ft | 374 kts | 194° |
| 2026-04-25 17:18 | 59.78083 | 24.63800 | 19702 ft | 375 kts | 196° |
| 2026-04-25 17:18 | 59.75561 | 24.62581 | 20285 ft | 378 kts | 197° |
| 2026-04-25 17:18 | 59.73010 | 24.61316 | 20851 ft | 381 kts | 197° |
| 2026-04-25 17:19 | 59.70423 | 24.60041 | 21412 ft | 385 kts | 197° |
| 2026-04-25 17:19 | 59.67847 | 24.58787 | 21990 ft | 387 kts | 197° |
| 2026-04-25 17:19 | 59.65219 | 24.57558 | 22508 ft | 390 kts | 195° |
| 2026-04-25 17:19 | 59.62559 | 24.56432 | 23036 ft | 394 kts | 194° |
| 2026-04-25 17:20 | 59.59882 | 24.55367 | 23511 ft | 397 kts | 194° |
| 2026-04-25 17:20 | 59.57190 | 24.54325 | 24046 ft | 399 kts | 194° |
| 2026-04-25 17:20 | 59.54440 | 24.53266 | 24519 ft | 402 kts | 194° |
| 2026-04-25 17:20 | 59.51702 | 24.52209 | 24935 ft | 406 kts | 194° |
| 2026-04-25 17:21 | 59.48938 | 24.51136 | 25284 ft | 410 kts | 194° |
| 2026-04-25 17:21 | 59.46113 | 24.50036 | 25680 ft | 413 kts | 194° |
| 2026-04-25 17:21 | 59.43310 | 24.48943 | 26031 ft | 417 kts | 195° |
| 2026-04-25 17:21 | 59.40469 | 24.47834 | 26330 ft | 421 kts | 195° |
| 2026-04-25 17:22 | 59.37582 | 24.46707 | 26668 ft | 424 kts | 195° |
| 2026-04-25 17:22 | 59.35664 | 24.45958 | 26872 ft | 426 kts | 195° |
| 2026-04-25 17:22 | 59.31724 | 24.44423 | 27301 ft | 431 kts | 195° |
| 2026-04-25 17:22 | 59.28782 | 24.43279 | 27623 ft | 433 kts | 195° |
| 2026-04-25 17:23 | 59.25831 | 24.42134 | 27892 ft | 437 kts | 195° |
| 2026-04-25 17:23 | 59.22874 | 24.40986 | 28174 ft | 441 kts | 195° |
| 2026-04-25 17:23 | 59.19854 | 24.39818 | 28477 ft | 443 kts | 195° |
| 2026-04-25 17:23 | 59.16816 | 24.38644 | 28750 ft | 446 kts | 195° |
| 2026-04-25 17:24 | 59.13770 | 24.37469 | 29001 ft | 449 kts | 195° |
| 2026-04-25 17:24 | 59.10702 | 24.36289 | 29290 ft | 451 kts | 195° |
| 2026-04-25 17:24 | 59.07589 | 24.35094 | 29532 ft | 455 kts | 195° |
| 2026-04-25 17:24 | 59.04508 | 24.33914 | 29817 ft | 456 kts | 194° |
| 2026-04-25 17:25 | 59.01407 | 24.32729 | 30170 ft | 455 kts | 194° |
| 2026-04-25 17:25 | 58.98307 | 24.31548 | 30501 ft | 455 kts | 194° |
| 2026-04-25 17:25 | 58.95208 | 24.30369 | 30782 ft | 456 kts | 194° |
| 2026-04-25 17:25 | 58.92126 | 24.29197 | 31034 ft | 457 kts | 194° |
| 2026-04-25 17:26 | 58.89029 | 24.28020 | 31290 ft | 458 kts | 194° |
| 2026-04-25 17:26 | 58.85897 | 24.26833 | 31572 ft | 458 kts | 194° |
| 2026-04-25 17:26 | 58.82769 | 24.25650 | 31835 ft | 459 kts | 195° |
| 2026-04-25 17:26 | 58.79652 | 24.24472 | 32086 ft | 459 kts | 195° |
| 2026-04-25 17:27 | 58.76508 | 24.23287 | 32321 ft | 460 kts | 194° |
| 2026-04-25 17:27 | 58.73356 | 24.22100 | 32548 ft | 461 kts | 194° |
| 2026-04-25 17:27 | 58.70227 | 24.20924 | 32789 ft | 461 kts | 194° |
| 2026-04-25 17:27 | 58.68142 | 24.20142 | 32920 ft | 462 kts | 195° |
| 2026-04-25 17:28 | 58.63944 | 24.18570 | 33335 ft | 461 kts | 194° |
| 2026-04-25 17:28 | 58.60841 | 24.17411 | 33612 ft | 460 kts | 194° |
| 2026-04-25 17:28 | 58.57676 | 24.16231 | 33931 ft | 459 kts | 194° |
| 2026-04-25 17:28 | 58.54574 | 24.15077 | 34228 ft | 458 kts | 194° |
| 2026-04-25 17:29 | 58.51460 | 24.13922 | 34497 ft | 458 kts | 194° |
| 2026-04-25 17:29 | 58.48327 | 24.12761 | 34766 ft | 457 kts | 194° |
| 2026-04-25 17:29 | 58.45227 | 24.11615 | 35054 ft | 456 kts | 194° |
| 2026-04-25 17:29 | 58.42144 | 24.10477 | 35240 ft | 457 kts | 194° |
| 2026-04-25 17:30 | 58.39010 | 24.09320 | 35436 ft | 458 kts | 194° |
| 2026-04-25 17:30 | 58.35906 | 24.08175 | 35443 ft | 460 kts | 194° |
| 2026-04-25 17:30 | 58.29641 | 24.05874 | 35441 ft | 457 kts | 194° |
| 2026-04-25 17:31 | 58.23434 | 24.03606 | 35457 ft | 455 kts | 195° |
| 2026-04-25 17:31 | 58.17201 | 24.01335 | 35463 ft | 455 kts | 195° |
| 2026-04-25 17:32 | 58.10964 | 23.99066 | 35472 ft | 457 kts | 194° |
| 2026-04-25 17:32 | 58.04749 | 23.96813 | 35470 ft | 460 kts | 194° |
| 2026-04-25 17:33 | 57.98462 | 23.94546 | 35468 ft | 459 kts | 194° |
| 2026-04-25 17:33 | 57.92213 | 23.92301 | 35464 ft | 459 kts | 195° |
| 2026-04-25 17:34 | 57.85956 | 23.90099 | 35488 ft | 459 kts | 194° |
| 2026-04-25 17:34 | 57.79649 | 23.88016 | 35477 ft | 459 kts | 194° |
| 2026-04-25 17:35 | 57.73404 | 23.85990 | 35491 ft | 460 kts | 194° |
| 2026-04-25 17:35 | 57.67119 | 23.83952 | 35490 ft | 458 kts | 194° |
| 2026-04-25 17:36 | 57.60854 | 23.81914 | 35494 ft | 459 kts | 194° |
| 2026-04-25 17:36 | 57.54590 | 23.79877 | 35502 ft | 459 kts | 194° |
| 2026-04-25 17:37 | 57.48257 | 23.77826 | 35508 ft | 460 kts | 194° |
| 2026-04-25 17:37 | 57.41999 | 23.75802 | 35524 ft | 461 kts | 194° |
| 2026-04-25 17:38 | 57.36757 | 23.74113 | 35513 ft | 460 kts | 194° |
| 2026-04-25 17:38 | 57.29401 | 23.71752 | 35527 ft | 459 kts | 194° |
| 2026-04-25 17:39 | 57.23161 | 23.69754 | 35532 ft | 459 kts | 194° |
| 2026-04-25 17:39 | 57.16866 | 23.67746 | 35524 ft | 460 kts | 194° |
| 2026-04-25 17:40 | 57.10567 | 23.65744 | 35525 ft | 458 kts | 194° |
| 2026-04-25 17:40 | 57.04282 | 23.63753 | 35534 ft | 461 kts | 195° |
| 2026-04-25 17:41 | 56.97981 | 23.61763 | 35528 ft | 460 kts | 194° |
| 2026-04-25 17:41 | 56.91694 | 23.59786 | 35536 ft | 460 kts | 195° |
| 2026-04-25 17:42 | 56.85394 | 23.57813 | 35547 ft | 460 kts | 195° |
| 2026-04-25 17:42 | 56.79054 | 23.55832 | 35538 ft | 459 kts | 195° |
| 2026-04-25 17:43 | 56.72777 | 23.53880 | 35561 ft | 460 kts | 195° |
| 2026-04-25 17:43 | 56.66513 | 23.51936 | 35550 ft | 459 kts | 195° |
| 2026-04-25 17:44 | 56.60166 | 23.49973 | 35547 ft | 459 kts | 195° |
| 2026-04-25 17:44 | 56.53904 | 23.48041 | 35554 ft | 460 kts | 195° |
| 2026-04-25 17:45 | 56.48613 | 23.46416 | 35545 ft | 457 kts | 195° |
| 2026-04-25 17:45 | 56.41291 | 23.44176 | 35556 ft | 460 kts | 195° |
| 2026-04-25 17:46 | 56.34994 | 23.42281 | 35568 ft | 459 kts | 195° |
| 2026-04-25 17:46 | 56.28661 | 23.40897 | 35546 ft | 460 kts | 192° |
| 2026-04-25 17:47 | 56.22253 | 23.39803 | 35557 ft | 463 kts | 192° |
| 2026-04-25 17:47 | 56.15868 | 23.38726 | 35563 ft | 460 kts | 192° |
| 2026-04-25 17:48 | 56.06330 | 23.37029 | 35568 ft | 459 kts | 192° |
| 2026-04-25 17:49 | 55.99991 | 23.35876 | 35558 ft | 457 kts | 192° |
| 2026-04-25 17:49 | 55.93625 | 23.34704 | 35581 ft | 461 kts | 192° |
| 2026-04-25 17:50 | 55.87249 | 23.33532 | 35577 ft | 459 kts | 192° |
| 2026-04-25 17:50 | 55.80895 | 23.32371 | 35570 ft | 459 kts | 192° |
| 2026-04-25 17:51 | 55.74588 | 23.31223 | 35581 ft | 456 kts | 192° |
| 2026-04-25 17:51 | 55.68218 | 23.30061 | 35579 ft | 456 kts | 193° |
| 2026-04-25 17:52 | 55.61874 | 23.28905 | 35562 ft | 458 kts | 192° |
| 2026-04-25 17:52 | 55.55558 | 23.27764 | 35569 ft | 457 kts | 192° |
| 2026-04-25 17:53 | 55.49253 | 23.26629 | 35561 ft | 454 kts | 192° |
| 2026-04-25 17:53 | 55.42959 | 23.25498 | 35590 ft | 455 kts | 193° |
| 2026-04-25 17:54 | 55.36666 | 23.24370 | 35596 ft | 455 kts | 193° |
| 2026-04-25 17:54 | 55.30383 | 23.23251 | 35597 ft | 454 kts | 193° |
| 2026-04-25 17:55 | 55.24092 | 23.22132 | 35598 ft | 451 kts | 193° |
| 2026-04-25 17:55 | 55.17812 | 23.21021 | 35594 ft | 450 kts | 193° |
| 2026-04-25 17:56 | 55.11588 | 23.19922 | 35594 ft | 450 kts | 193° |
| 2026-04-25 17:56 | 55.05403 | 23.18830 | 35601 ft | 451 kts | 194° |
| 2026-04-25 17:57 | 54.99137 | 23.17725 | 35599 ft | 449 kts | 193° |
| 2026-04-25 17:57 | 54.92909 | 23.16639 | 35597 ft | 449 kts | 194° |
| 2026-04-25 17:58 | 54.86706 | 23.15555 | 35598 ft | 448 kts | 193° |
| 2026-04-25 17:58 | 54.80451 | 23.14459 | 35607 ft | 449 kts | 194° |
| 2026-04-25 17:59 | 54.74225 | 23.13382 | 35606 ft | 450 kts | 194° |
| 2026-04-25 17:59 | 54.67993 | 23.12302 | 35616 ft | 449 kts | 194° |
| 2026-04-25 18:00 | 54.61794 | 23.11235 | 35603 ft | 448 kts | 194° |
| 2026-04-25 18:00 | 54.55579 | 23.10168 | 35623 ft | 447 kts | 194° |
| 2026-04-25 18:01 | 54.49424 | 23.09111 | 35639 ft | 447 kts | 194° |
| 2026-04-25 18:01 | 54.43229 | 23.08054 | 35634 ft | 445 kts | 194° |
| 2026-04-25 18:02 | 54.37059 | 23.07000 | 35632 ft | 445 kts | 194° |
| 2026-04-25 18:02 | 54.31069 | 23.05272 | 35655 ft | 431 kts | 205° |
| 2026-04-25 18:03 | 54.25650 | 23.01381 | 35638 ft | 418 kts | 215° |
| 2026-04-25 18:03 | 54.20592 | 22.96638 | 35629 ft | 415 kts | 218° |
| 2026-04-25 18:04 | 54.15579 | 22.91735 | 35679 ft | 414 kts | 218° |
| 2026-04-25 18:04 | 54.10594 | 22.86929 | 35649 ft | 412 kts | 217° |
| 2026-04-25 18:05 | 54.05582 | 22.82157 | 35668 ft | 413 kts | 217° |
| 2026-04-25 18:05 | 54.00553 | 22.77415 | 35684 ft | 415 kts | 217° |
| 2026-04-25 18:06 | 53.95546 | 22.72727 | 35676 ft | 413 kts | 217° |
| 2026-04-25 18:06 | 53.90477 | 22.67991 | 35666 ft | 414 kts | 217° |
| 2026-04-25 18:07 | 53.85440 | 22.63304 | 35676 ft | 416 kts | 217° |
| 2026-04-25 18:07 | 53.80372 | 22.58602 | 35662 ft | 415 kts | 217° |
| 2026-04-25 18:08 | 53.75301 | 22.53908 | 35662 ft | 417 kts | 217° |
| 2026-04-25 18:08 | 53.70185 | 22.49183 | 35652 ft | 419 kts | 217° |
| 2026-04-25 18:09 | 53.65062 | 22.44472 | 35674 ft | 418 kts | 217° |
| 2026-04-25 18:09 | 53.59934 | 22.39767 | 35678 ft | 420 kts | 217° |
| 2026-04-25 18:10 | 53.54795 | 22.35063 | 35678 ft | 419 kts | 217° |
| 2026-04-25 18:10 | 53.49669 | 22.30388 | 35670 ft | 419 kts | 216° |
| 2026-04-25 18:11 | 53.44563 | 22.25740 | 35674 ft | 421 kts | 216° |
| 2026-04-25 18:11 | 53.39365 | 22.21023 | 35681 ft | 422 kts | 216° |
| 2026-04-25 18:12 | 53.34227 | 22.16377 | 35683 ft | 420 kts | 216° |
| 2026-04-25 18:12 | 53.29004 | 22.11659 | 35687 ft | 423 kts | 216° |
| 2026-04-25 18:13 | 53.23842 | 22.07022 | 35692 ft | 421 kts | 216° |
| 2026-04-25 18:13 | 53.18637 | 22.02346 | 35698 ft | 421 kts | 216° |
| 2026-04-25 18:14 | 53.11021 | 21.95082 | 35707 ft | 422 kts | 218° |
| 2026-04-25 18:14 | 53.05944 | 21.90127 | 35717 ft | 422 kts | 218° |
| 2026-04-25 18:15 | 53.00858 | 21.85202 | 35712 ft | 422 kts | 218° |
| 2026-04-25 18:15 | 52.95789 | 21.80325 | 35716 ft | 422 kts | 218° |
| 2026-04-25 18:16 | 52.90691 | 21.75447 | 35725 ft | 423 kts | 218° |
| 2026-04-25 18:17 | 52.83057 | 21.68174 | 35726 ft | 423 kts | 218° |
| 2026-04-25 18:17 | 52.77968 | 21.63341 | 35731 ft | 423 kts | 218° |
| 2026-04-25 18:18 | 52.72810 | 21.58457 | 35734 ft | 424 kts | 218° |
| 2026-04-25 18:18 | 52.67637 | 21.53574 | 35723 ft | 424 kts | 218° |
| 2026-04-25 18:19 | 52.62527 | 21.48764 | 35725 ft | 424 kts | 218° |
| 2026-04-25 18:19 | 52.57382 | 21.43934 | 35728 ft | 425 kts | 218° |
| 2026-04-25 18:20 | 52.52231 | 21.39111 | 35730 ft | 426 kts | 218° |
| 2026-04-25 18:20 | 52.47081 | 21.34300 | 35736 ft | 427 kts | 217° |
| 2026-04-25 18:21 | 52.41908 | 21.29477 | 35738 ft | 427 kts | 217° |
| 2026-04-25 18:21 | 52.36758 | 21.24690 | 35747 ft | 429 kts | 217° |
| 2026-04-25 18:22 | 52.31556 | 21.19872 | 35755 ft | 426 kts | 217° |
| 2026-04-25 18:22 | 52.26253 | 21.15274 | 35655 ft | 433 kts | 211° |
| 2026-04-25 18:22 | 52.23385 | 21.13544 | 35993 ft | 441 kts | 206° |
| 2026-04-25 18:23 | 52.20414 | 21.12103 | 35674 ft | 445 kts | 203° |
| 2026-04-25 18:23 | 52.14398 | 21.09577 | 35772 ft | 449 kts | 202° |
| 2026-04-25 18:24 | 52.08349 | 21.07054 | 35774 ft | 445 kts | 202° |
| 2026-04-25 18:24 | 52.02383 | 21.04454 | 35776 ft | 445 kts | 203° |
| 2026-04-25 18:25 | 51.96375 | 21.01761 | 35783 ft | 446 kts | 204° |
| 2026-04-25 18:25 | 51.90403 | 20.99055 | 35785 ft | 446 kts | 204° |
| 2026-04-25 18:26 | 51.84405 | 20.96332 | 35778 ft | 448 kts | 204° |
| 2026-04-25 18:26 | 51.78368 | 20.93601 | 35792 ft | 448 kts | 204° |
| 2026-04-25 18:27 | 51.72346 | 20.90878 | 35790 ft | 447 kts | 204° |
| 2026-04-25 18:27 | 51.66384 | 20.88195 | 35800 ft | 449 kts | 204° |
| 2026-04-25 18:28 | 51.60311 | 20.85463 | 35796 ft | 449 kts | 204° |
| 2026-04-25 18:28 | 51.54283 | 20.82761 | 35688 ft | 452 kts | 204° |
| 2026-04-25 18:29 | 51.48260 | 20.80070 | 35215 ft | 448 kts | 203° |
| 2026-04-25 18:29 | 51.45242 | 20.78726 | 34613 ft | 449 kts | 204° |
| 2026-04-25 18:30 | 51.36128 | 20.74666 | 32255 ft | 453 kts | 203° |
| 2026-04-25 18:30 | 51.33086 | 20.73315 | 31442 ft | 455 kts | 203° |
| 2026-04-25 18:30 | 51.30056 | 20.71972 | 30613 ft | 456 kts | 204° |
| 2026-04-25 18:30 | 51.26986 | 20.70612 | 29722 ft | 458 kts | 203° |
| 2026-04-25 18:31 | 51.23868 | 20.69232 | 28802 ft | 459 kts | 203° |
| 2026-04-25 18:31 | 51.20798 | 20.67875 | 27880 ft | 461 kts | 203° |
| 2026-04-25 18:31 | 51.17742 | 20.66527 | 27141 ft | 458 kts | 203° |
| 2026-04-25 18:31 | 51.14664 | 20.65177 | 26498 ft | 452 kts | 203° |
| 2026-04-25 18:32 | 51.11645 | 20.63856 | 25828 ft | 448 kts | 203° |
| 2026-04-25 18:32 | 51.08680 | 20.62560 | 25160 ft | 444 kts | 203° |
| 2026-04-25 18:32 | 51.05732 | 20.61270 | 24459 ft | 439 kts | 203° |
| 2026-04-25 18:32 | 51.02841 | 20.60016 | 23798 ft | 421 kts | 204° |
| 2026-04-25 18:33 | 51.00072 | 20.58825 | 23172 ft | 405 kts | 204° |
| 2026-04-25 18:33 | 50.97409 | 20.57677 | 22547 ft | 391 kts | 204° |
| 2026-04-25 18:33 | 50.94820 | 20.56555 | 21945 ft | 378 kts | 204° |
| 2026-04-25 18:33 | 50.92323 | 20.55468 | 21357 ft | 366 kts | 205° |
| 2026-04-25 18:34 | 50.89938 | 20.54428 | 20789 ft | 355 kts | 205° |
| 2026-04-25 18:34 | 50.87577 | 20.53397 | 20225 ft | 344 kts | 205° |
| 2026-04-25 18:34 | 50.85325 | 20.52413 | 19681 ft | 334 kts | 205° |
| 2026-04-25 18:34 | 50.83076 | 20.51427 | 19148 ft | 330 kts | 205° |
| 2026-04-25 18:35 | 50.80883 | 20.50460 | 18622 ft | 327 kts | 205° |
| 2026-04-25 18:35 | 50.78711 | 20.49500 | 18057 ft | 329 kts | 205° |
| 2026-04-25 18:35 | 50.76497 | 20.48525 | 17510 ft | 329 kts | 205° |
| 2026-04-25 18:35 | 50.74304 | 20.47566 | 16966 ft | 330 kts | 204° |
| 2026-04-25 18:36 | 50.72094 | 20.46609 | 16406 ft | 327 kts | 204° |
| 2026-04-25 18:36 | 50.69922 | 20.45678 | 15882 ft | 323 kts | 204° |
| 2026-04-25 18:36 | 50.67765 | 20.44759 | 15359 ft | 318 kts | 204° |
| 2026-04-25 18:36 | 50.65662 | 20.43861 | 14841 ft | 313 kts | 204° |
| 2026-04-25 18:37 | 50.63559 | 20.42957 | 14324 ft | 309 kts | 204° |
| 2026-04-25 18:37 | 50.61517 | 20.42078 | 13823 ft | 305 kts | 204° |
| 2026-04-25 18:37 | 50.59491 | 20.41208 | 13315 ft | 302 kts | 204° |
| 2026-04-25 18:37 | 50.57453 | 20.40335 | 12806 ft | 300 kts | 204° |
| 2026-04-25 18:38 | 50.55460 | 20.39481 | 12305 ft | 298 kts | 204° |
| 2026-04-25 18:38 | 50.53471 | 20.38629 | 11805 ft | 297 kts | 204° |
| 2026-04-25 18:38 | 50.51494 | 20.37786 | 11299 ft | 295 kts | 203° |
| 2026-04-25 18:38 | 50.49534 | 20.36951 | 10952 ft | 293 kts | 204° |
| 2026-04-25 18:39 | 50.47547 | 20.36104 | 10675 ft | 291 kts | 203° |
| 2026-04-25 18:39 | 50.45614 | 20.35282 | 10535 ft | 291 kts | 204° |
| 2026-04-25 18:39 | 50.43645 | 20.34442 | 10411 ft | 293 kts | 202° |
| 2026-04-25 18:39 | 50.41669 | 20.33600 | 10278 ft | 293 kts | 202° |
| 2026-04-25 18:40 | 50.39744 | 20.32789 | 10138 ft | 283 kts | 202° |
| 2026-04-25 18:40 | 50.37852 | 20.31996 | 9989 ft | 278 kts | 202° |
| 2026-04-25 18:40 | 50.35984 | 20.31200 | 9667 ft | 282 kts | 202° |
| 2026-04-25 18:40 | 50.34098 | 20.30390 | 9288 ft | 281 kts | 202° |
| 2026-04-25 18:41 | 50.32216 | 20.29588 | 8943 ft | 279 kts | 202° |
| 2026-04-25 18:41 | 50.30353 | 20.28800 | 8602 ft | 277 kts | 202° |
| 2026-04-25 18:41 | 50.28505 | 20.28022 | 8246 ft | 274 kts | 202° |
| 2026-04-25 18:41 | 50.26702 | 20.27270 | 7933 ft | 263 kts | 202° |
| 2026-04-25 18:42 | 50.24986 | 20.26555 | 7643 ft | 252 kts | 202° |
| 2026-04-25 18:42 | 50.23859 | 20.26081 | 7452 ft | 247 kts | 202° |
| 2026-04-25 18:42 | 50.21698 | 20.25166 | 7089 ft | 235 kts | 202° |
| 2026-04-25 18:42 | 50.20158 | 20.24517 | 6883 ft | 224 kts | 203° |
| 2026-04-25 18:43 | 50.18663 | 20.23881 | 6546 ft | 221 kts | 204° |
| 2026-04-25 18:43 | 50.17302 | 20.22993 | 6267 ft | 204 kts | 224° |
| 2026-04-25 18:43 | 50.16268 | 20.21564 | 5875 ft | 198 kts | 232° |
| 2026-04-25 18:43 | 50.15312 | 20.20095 | 5777 ft | 188 kts | 231° |
| 2026-04-25 18:44 | 50.14385 | 20.18680 | 5471 ft | 189 kts | 232° |
| 2026-04-25 18:44 | 50.13531 | 20.17131 | 5176 ft | 182 kts | 242° |
| 2026-04-25 18:44 | 50.13000 | 20.15458 | 5044 ft | 167 kts | 256° |
| 2026-04-25 18:44 | 50.12681 | 20.13784 | 4988 ft | 158 kts | 260° |
| 2026-04-25 18:45 | 50.12421 | 20.12106 | 4994 ft | 159 kts | 261° |
| 2026-04-25 18:45 | 50.12181 | 20.10426 | 4838 ft | 162 kts | 262° |
| 2026-04-25 18:45 | 50.11944 | 20.08721 | 4547 ft | 160 kts | 262° |
| 2026-04-25 18:45 | 50.11711 | 20.07034 | 4336 ft | 158 kts | 262° |
| 2026-04-25 18:46 | 50.11484 | 20.05363 | 4124 ft | 158 kts | 262° |
| 2026-04-25 18:46 | 50.11253 | 20.03678 | 3903 ft | 158 kts | 262° |
| 2026-04-25 18:46 | 50.11025 | 20.02013 | 3671 ft | 158 kts | 262° |
| 2026-04-25 18:46 | 50.10793 | 20.00328 | 3446 ft | 159 kts | 262° |
| 2026-04-25 18:47 | 50.10566 | 19.98667 | 3233 ft | 158 kts | 262° |
| 2026-04-25 18:47 | 50.10333 | 19.96975 | 3009 ft | 157 kts | 261° |
| 2026-04-25 18:47 | 50.10115 | 19.95407 | 2827 ft | 140 kts | 262° |
| 2026-04-25 18:47 | 50.09915 | 19.93939 | 2609 ft | 138 kts | 262° |
| 2026-04-25 18:48 | 50.09715 | 19.92487 | 2426 ft | 136 kts | 262° |
| 2026-04-25 18:48 | 50.09520 | 19.91067 | 2247 ft | 136 kts | 262° |
| 2026-04-25 18:48 | 50.09319 | 19.89622 | 2064 ft | 137 kts | 261° |
| 2026-04-25 18:48 | 50.09118 | 19.88159 | 1876 ft | 138 kts | 261° |
| 2026-04-25 18:49 | 50.08912 | 19.86691 | 1694 ft | 138 kts | 261° |
| 2026-04-25 18:49 | 50.08699 | 19.85227 | 1514 ft | 139 kts | 260° |
| 2026-04-25 18:49 | 50.08503 | 19.83745 | 1293 ft | 142 kts | 260° |
| 2026-04-25 18:49 | 50.08294 | 19.82227 | 1126 ft | 143 kts | 259° |
| 2026-04-25 18:50 | 50.08086 | 19.80754 | 924 ft | 139 kts | 259° |
| 2026-04-25 18:50 | 50.07885 | 19.79302 | 800 ft | 128 kts | 258° |
| 2026-04-25 18:50 | 50.07749 | 19.78328 | 800 ft | 48 kts | 258° |
| 2026-04-25 18:50 | 50.07701 | 19.78104 | 800 ft | 9 kts | 210° |
| 2026-04-25 18:51 | 50.07637 | 19.78094 | 800 ft | 9 kts | 181° |
| 2026-04-25 18:51 | 50.07596 | 19.78092 | 800 ft | 8 kts | 182° |
| 2026-04-25 18:51 | 50.07507 | 19.78089 | 799 ft | 10 kts | 169° |
| 2026-04-25 18:51 | 50.07477 | 19.78170 | 800 ft | 9 kts | 82° |
| 2026-04-25 18:52 | 50.07494 | 19.78303 | 800 ft | 18 kts | 78° |
| 2026-04-25 18:52 | 50.07524 | 19.78512 | 800 ft | 19 kts | 78° |
| 2026-04-25 18:52 | 50.07552 | 19.78719 | 800 ft | 19 kts | 77° |
| 2026-04-25 18:52 | 50.07581 | 19.78924 | 800 ft | 19 kts | 78° |
| 2026-04-25 18:53 | 50.07610 | 19.79127 | 800 ft | 19 kts | 78° |
| 2026-04-25 18:53 | 50.07637 | 19.79328 | 800 ft | 18 kts | 77° |
| 2026-04-25 18:53 | 50.07665 | 19.79524 | 800 ft | 18 kts | 78° |
| 2026-04-25 18:53 | 50.07676 | 19.79660 | 800 ft | 9 kts | 118° |
| 2026-04-25 18:54 | 50.07492 | 19.79750 | 800 ft | 15 kts | 167° |
| 2026-04-25 18:54 | 50.07393 | 19.79785 | 800 ft | 13 kts | 172° |
| 2026-04-25 18:54 | 50.07328 | 19.79789 | 800 ft | 5 kts | 171° |
| 2026-04-25 18:55 | 50.07304 | 19.79797 | 800 ft | 2 kts | 167° |
| 2026-04-25 18:55 | 50.07298 | 19.79799 | 800 ft | 0 kts | 166° |